createdAt,value
2023-04-14T00:02:11.535Z,5.90
2023-04-14T00:04:52.423Z,4.95
2023-04-14T00:07:22.895Z,5.20
2023-04-14T00:10:01.046Z,5.28
2023-04-14T00:12:43.191Z,4.45
2023-04-14T00:15:11.449Z,4.60
2023-04-14T00:17:55.623Z,4.20
2023-04-14T00:20:29.945Z,3.97
2023-04-14T00:23:01.123Z,4.70
2023-04-14T00:25:30.342Z,4.10
2023-04-14T00:28:13.733Z,4.63
2023-04-14T00:30:48.020Z,4.20
2023-04-14T00:33:17.922Z,4.78
2023-04-14T00:36:07.921Z,4.10
2023-04-14T00:38:35.954Z,4.35
2023-04-14T00:41:05.138Z,4.88
2023-04-14T00:43:47.381Z,3.40
2023-04-14T00:46:18.551Z,3.55
2023-04-14T00:48:47.676Z,3.45
2023-04-14T00:51:24.047Z,4.55
2023-04-14T00:53:55.616Z,4.00
2023-04-14T00:57:01.018Z,4.05
2023-04-14T00:59:51.812Z,3.97
2023-04-14T01:02:37.575Z,3.57
2023-04-14T01:05:23.299Z,4.65
2023-04-14T01:08:02.590Z,3.72
2023-04-14T01:10:48.537Z,3.92
2023-04-14T01:13:21.910Z,4.07
2023-04-14T01:16:02.240Z,3.80
2023-04-14T01:18:57.901Z,3.38
2023-04-14T01:21:29.740Z,3.63
2023-04-14T01:24:13.531Z,3.08
2023-04-14T01:26:49.735Z,3.05
2023-04-14T01:29:42.795Z,2.63
2023-04-14T01:32:18.790Z,3.33
2023-04-14T01:34:55.711Z,2.60
2023-04-14T01:37:31.772Z,2.63
2023-04-14T01:40:13.025Z,2.63
2023-04-14T01:43:08.999Z,2.20
2023-04-14T01:45:45.050Z,2.45
2023-04-14T01:48:18.547Z,2.47
2023-04-14T01:50:47.558Z,3.05
2023-04-14T01:53:34.218Z,2.78
2023-04-14T01:56:05.529Z,2.90
2023-04-14T01:58:36.112Z,2.70
2023-04-14T02:01:08.056Z,3.00
2023-04-14T02:03:38.935Z,3.17
2023-04-14T02:06:10.274Z,3.10
2023-04-14T02:09:14.406Z,3.00
2023-04-14T02:11:47.270Z,4.30
2023-04-14T02:14:24.100Z,3.10
2023-04-14T02:16:54.297Z,2.95
2023-04-14T02:19:24.527Z,3.08
2023-04-14T02:21:54.315Z,3.30
2023-04-14T02:24:28.677Z,3.40
2023-04-14T02:27:14.187Z,3.85
2023-04-14T02:29:58.957Z,3.80
2023-04-14T02:32:39.316Z,4.97
2023-04-14T02:35:32.518Z,3.53
2023-04-14T02:38:23.965Z,4.05
2023-04-14T02:41:13.000Z,4.32
2023-04-14T02:43:51.936Z,3.47
2023-04-14T02:46:21.865Z,3.45
2023-04-14T02:48:51.837Z,3.88
2023-04-14T02:51:29.010Z,3.40
2023-04-14T02:54:09.573Z,3.13
2023-04-14T02:56:37.837Z,3.45
2023-04-14T02:59:24.834Z,3.38
2023-04-14T03:01:58.187Z,3.35
2023-04-14T03:04:27.154Z,3.10
2023-04-14T03:07:04.636Z,3.03
2023-04-14T03:09:33.720Z,3.35
2023-04-14T03:12:04.518Z,3.45
2023-04-14T03:14:42.454Z,3.00
2023-04-14T03:17:16.321Z,3.00
2023-04-14T03:19:48.117Z,2.70
2023-04-14T03:22:30.588Z,2.97
2023-04-14T03:25:08.296Z,2.90
2023-04-14T03:27:38.225Z,2.83
2023-04-14T03:30:11.734Z,2.67
2023-04-14T03:33:02.508Z,2.90
2023-04-14T03:35:44.041Z,2.90
2023-04-14T03:38:17.961Z,2.53
2023-04-14T03:40:53.342Z,3.75
2023-04-14T03:43:24.172Z,2.55
2023-04-14T03:45:53.298Z,2.07
2023-04-14T03:48:43.788Z,2.40
2023-04-14T03:51:25.109Z,2.90
2023-04-14T03:53:57.898Z,2.72
2023-04-14T03:56:42.737Z,2.88
2023-04-14T03:59:25.413Z,3.00
2023-04-14T04:01:57.076Z,2.60
2023-04-14T04:04:28.391Z,2.67
2023-04-14T04:06:57.001Z,2.97
2023-04-14T04:09:44.530Z,2.65
2023-04-14T04:12:19.790Z,2.55
2023-04-14T04:14:49.203Z,2.47
2023-04-14T04:17:19.920Z,2.38
2023-04-14T04:19:56.123Z,2.63
2023-04-14T04:22:25.468Z,2.63
2023-04-14T04:24:55.662Z,3.00
2023-04-14T04:27:31.300Z,2.90
2023-04-14T04:30:10.626Z,2.53
2023-04-14T04:32:43.044Z,3.38
2023-04-14T04:35:26.325Z,3.08
2023-04-14T04:38:03.940Z,3.90
2023-04-14T04:40:41.864Z,3.45
2023-04-14T04:43:12.228Z,3.05
2023-04-14T04:46:06.574Z,3.20
2023-04-14T04:48:35.841Z,3.67
2023-04-14T04:51:05.913Z,3.95
2023-04-14T04:53:51.330Z,3.10
2023-04-14T04:56:39.525Z,3.72
2023-04-14T04:59:32.693Z,3.30
2023-04-14T05:02:20.921Z,3.10
2023-04-14T05:04:59.153Z,3.15
2023-04-14T05:08:05.098Z,3.17
2023-04-14T05:10:35.624Z,3.08
2023-04-14T05:13:09.779Z,2.57
2023-04-14T05:15:45.274Z,2.92
2023-04-14T05:18:18.678Z,2.60
2023-04-14T05:20:48.976Z,3.17
2023-04-14T05:23:21.265Z,3.90
2023-04-14T05:25:51.472Z,3.30
2023-04-14T05:28:31.098Z,3.60
2023-04-14T05:31:05.843Z,4.20
2023-04-14T05:33:42.130Z,3.53
2023-04-14T05:36:31.002Z,3.00
2023-04-14T05:39:12.376Z,3.10
2023-04-14T05:41:44.788Z,2.85
2023-04-14T05:44:14.150Z,3.78
2023-04-14T05:47:28.784Z,4.18
2023-04-14T05:50:20.872Z,3.88
2023-04-14T05:52:50.494Z,3.13
2023-04-14T05:58:37.057Z,3.40
2023-04-14T06:01:30.328Z,2.97
2023-04-14T06:04:09.378Z,3.85
2023-04-14T06:06:57.255Z,3.38
2023-04-14T06:09:30.834Z,3.50
2023-04-14T06:12:00.112Z,4.13
2023-04-14T06:14:28.435Z,3.28
2023-04-14T06:17:13.253Z,3.42
2023-04-14T06:19:50.616Z,3.45
2023-04-14T06:22:20.843Z,4.20
2023-04-14T06:25:00.116Z,3.92
2023-04-14T06:27:50.583Z,3.83
2023-04-14T06:30:44.441Z,3.17
2023-04-14T06:36:25.103Z,3.50
2023-04-14T06:39:00.209Z,4.30
2023-04-14T06:41:47.739Z,3.50
2023-04-14T06:44:15.965Z,4.10
2023-04-14T06:50:02.598Z,4.15
2023-04-14T06:52:32.821Z,3.95
2023-04-14T06:55:33.901Z,4.20
2023-04-14T06:58:10.405Z,3.80
2023-04-14T07:00:53.779Z,3.40
2023-04-14T07:03:23.034Z,4.15
2023-04-14T07:06:19.517Z,3.30
2023-04-14T07:08:52.683Z,4.00
2023-04-14T07:11:20.515Z,3.80
2023-04-14T07:13:54.737Z,4.53
2023-04-14T07:16:28.118Z,4.10
2023-04-14T07:19:08.687Z,3.55
2023-04-14T07:21:46.364Z,3.53
2023-04-14T07:24:47.700Z,3.53
2023-04-14T07:27:16.686Z,2.45
2023-04-14T07:29:46.279Z,3.30
2023-04-14T07:32:17.911Z,3.08
2023-04-14T07:34:54.059Z,3.67
2023-04-14T07:37:26.622Z,3.28
2023-04-14T07:40:01.660Z,3.10
2023-04-14T07:42:38.315Z,2.83
2023-04-14T07:45:18.804Z,2.97
2023-04-14T07:47:57.576Z,2.92
2023-04-14T07:50:27.063Z,2.78
2023-04-14T07:52:57.179Z,2.72
2023-04-14T07:55:40.498Z,2.05
2023-04-14T07:58:15.351Z,2.30
2023-04-14T08:00:48.885Z,2.50
2023-04-14T08:03:30.070Z,2.08
2023-04-14T08:05:58.942Z,2.30
2023-04-14T08:08:29.680Z,1.75
2023-04-14T08:10:57.643Z,2.25
2023-04-14T08:13:26.824Z,1.67
2023-04-14T08:15:59.892Z,1.42
2023-04-14T08:18:28.070Z,1.45
2023-04-14T08:21:12.913Z,1.50
2023-04-14T08:23:42.378Z,1.60
2023-04-14T08:26:10.279Z,1.42
2023-04-14T08:28:38.556Z,1.20
2023-04-14T08:31:08.669Z,1.20
2023-04-14T08:33:36.700Z,1.00
2023-04-14T08:36:11.344Z,1.30
2023-04-14T08:38:42.920Z,1.00
2023-04-14T08:41:13.810Z,1.17
2023-04-14T08:44:03.574Z,1.38
2023-04-14T08:46:33.041Z,1.00
2023-04-14T08:49:06.202Z,1.20
2023-04-14T08:51:56.059Z,1.20
2023-04-14T08:54:35.389Z,1.27
2023-04-14T08:57:17.285Z,1.00
2023-04-14T08:59:46.903Z,1.27
2023-04-14T09:02:19.941Z,1.10
2023-04-14T09:04:58.434Z,1.30
2023-04-14T09:07:28.227Z,1.20
2023-04-14T09:09:59.348Z,1.40
2023-04-14T09:12:45.674Z,1.40
2023-04-14T09:15:14.949Z,1.60
2023-04-14T09:17:57.819Z,1.65
2023-04-14T09:20:36.567Z,1.70
2023-04-14T09:23:14.682Z,1.60
2023-04-14T09:26:02.590Z,1.60
2023-04-14T09:28:39.656Z,1.80
2023-04-14T09:31:08.377Z,1.70
2023-04-14T09:33:40.212Z,2.10
2023-04-14T09:36:25.779Z,1.88
2023-04-14T09:39:01.851Z,2.08
2023-04-14T09:41:30.014Z,1.70
2023-04-14T09:44:18.103Z,1.80
2023-04-14T09:46:49.107Z,1.88
2023-04-14T09:49:17.185Z,1.52
2023-04-14T09:52:02.067Z,1.73
2023-04-14T09:54:30.165Z,2.10
2023-04-14T09:57:05.419Z,2.15
2023-04-14T09:59:38.388Z,2.25
2023-04-14T10:02:08.273Z,2.08
2023-04-14T10:04:39.444Z,2.17
2023-04-14T10:07:12.821Z,1.73
2023-04-14T10:09:50.961Z,1.83
2023-04-14T10:12:21.009Z,1.58
2023-04-14T10:15:06.760Z,1.75
2023-04-14T10:17:35.135Z,1.63
2023-04-14T10:20:08.457Z,1.70
2023-04-14T10:22:39.106Z,1.70
2023-04-14T10:25:12.465Z,1.20
2023-04-14T10:27:40.934Z,1.63
2023-04-14T10:30:18.421Z,1.40
2023-04-14T10:32:49.332Z,1.20
2023-04-14T10:35:22.252Z,1.30
2023-04-14T10:38:03.719Z,1.05
2023-04-14T10:40:55.039Z,1.30
2023-04-14T10:43:29.007Z,1.17
2023-04-14T10:46:02.338Z,2.38
2023-04-14T10:48:40.657Z,1.40
2023-04-14T10:51:14.928Z,1.30
2023-04-14T10:53:48.180Z,1.35
2023-04-14T10:56:16.535Z,1.30
2023-04-14T10:58:55.757Z,1.00
2023-04-14T11:01:26.107Z,1.25
2023-04-14T11:04:36.699Z,1.20
2023-04-14T11:07:12.999Z,1.60
2023-04-14T11:09:50.427Z,1.30
2023-04-14T11:12:27.331Z,1.20
2023-04-14T11:15:15.957Z,1.20
2023-04-14T11:17:56.764Z,1.20
2023-04-14T11:20:26.698Z,1.00
2023-04-14T11:22:56.548Z,1.00
2023-04-14T11:25:25.390Z,0.80
2023-04-14T11:27:53.699Z,1.13
2023-04-14T11:30:26.217Z,0.65
2023-04-14T11:33:00.969Z,0.90
2023-04-14T11:35:34.660Z,0.90
2023-04-14T11:38:05.492Z,0.90
2023-04-14T11:40:43.562Z,1.00
2023-04-14T11:43:55.345Z,1.00
2023-04-14T11:46:36.580Z,0.85
2023-04-14T11:49:05.776Z,0.80
2023-04-14T11:51:40.317Z,0.80
2023-04-14T11:54:22.247Z,0.95
2023-04-14T11:57:27.278Z,0.77
2023-04-14T12:00:13.861Z,1.00
2023-04-14T12:02:44.628Z,1.02
2023-04-14T12:05:18.478Z,1.20
2023-04-14T12:08:06.491Z,1.10
2023-04-14T12:10:35.321Z,1.00
2023-04-14T12:13:03.996Z,1.10
2023-04-14T12:15:43.770Z,0.80
2023-04-14T12:18:23.269Z,1.10
2023-04-14T12:21:02.533Z,0.85
2023-04-14T12:23:32.053Z,1.10
2023-04-14T12:26:02.056Z,1.13
2023-04-14T12:28:31.852Z,1.15
2023-04-14T12:31:05.698Z,1.30
2023-04-14T12:33:38.123Z,1.15
2023-04-14T12:36:11.556Z,1.35
2023-04-14T12:38:39.876Z,1.45
2023-04-14T12:41:12.323Z,1.30
2023-04-14T12:43:42.728Z,1.00
2023-04-14T12:46:11.339Z,1.30
2023-04-14T12:48:50.333Z,1.20
2023-04-14T12:51:21.411Z,1.05
2023-04-14T12:54:08.352Z,1.00
2023-04-14T12:56:51.884Z,1.20
2023-04-14T12:59:20.055Z,1.08
2023-04-14T13:01:52.248Z,1.08
2023-04-14T13:04:26.495Z,1.13
2023-04-14T13:06:58.811Z,0.90
2023-04-14T13:09:38.243Z,0.90
2023-04-14T13:12:23.180Z,0.95
2023-04-14T13:15:22.469Z,1.38
2023-04-14T13:18:18.728Z,0.98
2023-04-14T13:20:58.042Z,1.25
2023-04-14T13:23:35.207Z,0.95
2023-04-14T13:26:07.457Z,1.20
2023-04-14T13:28:41.764Z,1.48
2023-04-14T13:31:18.131Z,1.27
2023-04-14T13:33:54.426Z,1.27
2023-04-14T13:36:25.778Z,1.17
2023-04-14T13:41:25.959Z,1.00
2023-04-14T13:43:56.065Z,1.10
2023-04-14T13:46:41.229Z,1.10
2023-04-14T13:49:10.688Z,1.20
2023-04-14T13:52:15.092Z,0.90
2023-04-14T13:54:51.651Z,1.20
2023-04-14T13:57:31.117Z,1.30
2023-04-14T14:00:05.535Z,1.30
2023-04-14T14:02:43.686Z,1.33
2023-04-14T14:05:16.296Z,1.40
2023-04-14T14:07:54.680Z,1.67
2023-04-14T14:10:30.042Z,1.15
2023-04-14T14:13:12.914Z,1.27
2023-04-14T14:15:42.260Z,1.40
2023-04-14T14:18:16.295Z,1.33
2023-04-14T14:20:46.598Z,1.42
2023-04-14T14:23:17.709Z,1.90
2023-04-14T14:26:03.021Z,1.88
2023-04-14T14:28:32.328Z,2.20
2023-04-14T14:31:01.741Z,2.08
2023-04-14T14:33:37.213Z,1.95
2023-04-14T14:36:06.736Z,2.25
2023-04-14T14:38:37.241Z,2.20
2023-04-14T14:41:10.522Z,2.23
2023-04-14T14:43:49.874Z,2.35
2023-04-14T14:46:24.927Z,2.92
2023-04-14T14:49:12.843Z,2.55
2023-04-14T14:51:41.409Z,2.47
2023-04-14T14:54:16.021Z,2.65
2023-04-14T14:56:48.315Z,2.42
2023-04-14T14:59:19.434Z,2.60
2023-04-14T15:01:54.970Z,2.90
2023-04-14T15:04:23.381Z,2.50
2023-04-14T15:06:52.046Z,2.00
2023-04-14T15:09:21.291Z,2.45
2023-04-14T15:11:49.964Z,1.83
2023-04-14T15:14:18.268Z,2.15
2023-04-14T15:16:56.908Z,2.40
2023-04-14T15:19:32.632Z,2.17
2023-04-14T15:22:06.213Z,1.83
2023-04-14T15:24:36.221Z,1.75
2023-04-14T15:27:12.984Z,2.20
2023-04-14T15:29:47.818Z,2.00
2023-04-14T15:32:37.749Z,2.20
2023-04-14T15:35:10.530Z,2.20
2023-04-14T15:37:38.933Z,1.52
2023-04-14T15:40:15.318Z,1.50
2023-04-14T15:42:49.423Z,1.85
2023-04-14T15:45:18.826Z,1.90
2023-04-14T15:47:58.485Z,1.75
2023-04-14T15:50:29.237Z,2.00
2023-04-14T15:52:57.576Z,1.90
2023-04-14T15:55:27.217Z,1.80
2023-04-14T15:58:04.359Z,1.95
2023-04-14T16:00:34.304Z,2.20
2023-04-14T16:03:05.857Z,2.65
2023-04-14T16:05:33.990Z,2.67
2023-04-14T16:08:40.610Z,1.90
2023-04-14T16:11:09.154Z,2.10
2023-04-14T16:13:45.832Z,3.08
2023-04-14T16:16:17.402Z,2.45
2023-04-14T16:18:47.538Z,2.13
2023-04-14T16:21:17.998Z,2.70
2023-04-14T16:23:55.590Z,2.95
2023-04-14T16:26:25.316Z,2.80
2023-04-14T16:28:55.102Z,2.65
2023-04-14T16:31:27.314Z,2.90
2023-04-14T16:34:02.912Z,3.10
2023-04-14T16:36:50.617Z,3.33
2023-04-14T16:39:19.700Z,3.10
2023-04-14T16:41:49.889Z,3.10
2023-04-14T16:44:22.013Z,3.67
2023-04-14T16:46:51.399Z,3.47
2023-04-14T16:49:20.881Z,3.97
2023-04-14T16:51:53.430Z,4.50
2023-04-14T16:54:22.224Z,4.10
2023-04-14T16:56:55.631Z,4.20
2023-04-14T16:59:27.998Z,3.80
2023-04-14T17:02:04.867Z,3.95
2023-04-14T17:04:40.995Z,3.53
2023-04-14T17:07:15.574Z,4.40
2023-04-14T17:09:46.026Z,4.07
2023-04-14T17:12:33.067Z,3.63
2023-04-14T17:15:16.862Z,4.10
2023-04-14T17:17:49.942Z,3.08
2023-04-14T17:20:24.708Z,3.45
2023-04-14T17:22:57.163Z,3.28
2023-04-14T17:25:48.476Z,3.20
2023-04-14T17:28:22.562Z,3.70
2023-04-14T17:30:51.389Z,3.65
2023-04-14T17:33:30.766Z,3.58
2023-04-14T17:36:35.981Z,3.20
2023-04-14T17:39:06.087Z,2.75
2023-04-14T17:41:41.275Z,2.58
2023-04-14T17:44:09.526Z,2.30
2023-04-14T17:46:41.736Z,2.65
2023-04-14T17:49:13.296Z,3.25
2023-04-14T17:51:44.044Z,2.65
2023-04-14T17:54:12.214Z,2.90
2023-04-14T17:56:53.046Z,3.58
2023-04-14T17:59:27.513Z,3.42
2023-04-14T18:01:55.738Z,3.72
2023-04-14T18:04:29.323Z,4.38
2023-04-14T18:07:00.915Z,4.45
2023-04-14T18:09:37.391Z,4.18
2023-04-14T18:12:06.625Z,4.50
2023-04-14T18:14:36.883Z,4.75
2023-04-14T18:17:11.306Z,5.43
2023-04-14T18:19:40.673Z,4.68
2023-04-14T18:22:17.081Z,5.57
2023-04-14T18:24:48.380Z,5.13
2023-04-14T18:29:56.732Z,5.43
2023-04-14T18:32:37.388Z,5.32
2023-04-14T18:35:08.619Z,6.97
2023-04-14T18:37:36.737Z,6.30
2023-04-14T18:40:10.796Z,6.70
2023-04-14T18:42:47.094Z,7.03
2023-04-14T18:45:24.379Z,5.35
2023-04-14T18:47:52.556Z,5.03
2023-04-14T18:50:25.876Z,6.13
2023-04-14T18:52:57.458Z,6.68
2023-04-14T18:55:39.556Z,6.25
2023-04-14T18:58:35.401Z,6.20
2023-04-14T19:01:19.027Z,7.40
2023-04-14T19:04:01.133Z,7.40
2023-04-14T19:06:35.167Z,7.13
2023-04-14T19:09:12.322Z,8.00
2023-04-14T19:11:43.131Z,6.68
2023-04-14T19:14:14.738Z,6.50
2023-04-14T19:16:48.930Z,8.23
2023-04-14T19:19:21.904Z,7.45
2023-04-14T19:21:51.065Z,6.43
2023-04-14T19:24:23.280Z,7.28
2023-04-14T19:26:52.932Z,8.02
2023-04-14T19:29:22.052Z,7.28
2023-04-14T19:31:50.345Z,7.50
2023-04-14T19:34:18.318Z,6.35
2023-04-14T19:36:54.576Z,6.22
2023-04-14T19:39:27.717Z,6.53
2023-04-14T19:42:03.086Z,5.95
2023-04-14T19:44:32.508Z,6.30
2023-04-14T19:47:03.769Z,6.53
2023-04-14T19:49:32.400Z,6.05
2023-04-14T19:52:02.974Z,6.40
2023-04-14T19:54:32.556Z,6.17
2023-04-14T19:57:12.351Z,6.53
2023-04-14T19:59:49.806Z,6.10
2023-04-14T20:08:26.765Z,4.95
2023-04-14T20:11:35.257Z,5.65
2023-04-14T20:14:04.101Z,5.25
2023-04-14T20:16:32.909Z,4.05
2023-04-14T20:19:03.821Z,4.50
2023-04-14T20:21:35.513Z,4.68
2023-04-14T20:26:46.413Z,5.03
2023-04-14T20:29:21.727Z,4.70
2023-04-14T20:32:16.600Z,4.70
2023-04-14T20:35:07.657Z,4.40
2023-04-14T20:37:45.767Z,3.88
2023-04-14T20:40:13.831Z,5.10
2023-04-14T20:42:47.562Z,4.70
2023-04-14T20:45:24.994Z,4.70
2023-04-14T20:48:01.361Z,5.32
2023-04-14T20:50:46.247Z,6.00
2023-04-14T20:53:20.721Z,4.80
2023-04-14T20:55:53.382Z,6.00
2023-04-14T20:58:45.269Z,4.68
2023-04-14T21:01:21.896Z,6.70
2023-04-14T21:03:52.605Z,5.82
2023-04-14T21:06:21.720Z,5.25
2023-04-14T21:09:01.353Z,5.30
2023-04-14T21:11:30.320Z,5.55
2023-04-14T21:15:31.115Z,4.65
2023-04-14T21:17:25.710Z,5.35
2023-04-14T21:23:07.910Z,4.35
2023-04-14T21:25:44.397Z,4.30
2023-04-14T21:34:28.839Z,3.20
2023-04-14T21:37:18.208Z,3.88
2023-04-14T21:39:49.540Z,3.78
2023-04-14T21:42:20.363Z,3.90
2023-04-14T21:44:58.434Z,4.00
2023-04-14T21:47:38.631Z,3.78
2023-04-14T21:50:08.701Z,4.30
2023-04-14T21:52:46.744Z,5.95
2023-04-14T21:55:27.986Z,5.60
2023-04-14T22:01:15.076Z,5.82
2023-04-14T22:04:04.222Z,6.57
2023-04-14T22:12:56.660Z,6.10
2023-04-14T22:15:41.793Z,5.68
2023-04-14T22:21:28.213Z,6.07
2023-04-14T22:24:27.654Z,5.40
2023-04-14T22:27:10.440Z,5.47
2023-04-14T22:29:44.962Z,6.25
2023-04-14T22:32:25.395Z,5.78
2023-04-14T22:34:55.079Z,5.82
2023-04-14T22:37:30.567Z,6.57
2023-04-14T22:40:01.738Z,6.35
2023-04-14T22:43:05.565Z,6.78
2023-04-14T22:45:43.792Z,6.60
2023-04-14T22:48:16.261Z,6.65
2023-04-14T22:50:52.738Z,5.97
2023-04-14T22:53:45.448Z,7.45
2023-04-14T22:56:37.938Z,6.60
2023-04-14T22:59:18.496Z,5.72
2023-04-14T23:33:28.498Z,6.38
2023-04-14T23:36:04.898Z,6.30
2023-04-14T23:38:59.820Z,7.13
2023-04-14T23:45:22.195Z,6.15
2023-04-14T23:48:14.895Z,6.55
2023-04-14T23:51:00.690Z,6.82
2023-04-14T23:57:01.802Z,6.88
